KIWD Weather

FAA AWOS (Automated Weather Observing System)

Weather observations for the last 3 days click here.

KIWD

METAR
KIWD 180256Z AUTO 27008KT 10SM CLR M07/M12 A2990 RMK AO2 SLP146 T10671122 51024 FZRANO
KIWD 180156Z AUTO 28011KT 10SM CLR M04/M12 A2988 RMK AO2 SLP140 T10441117 FZRANO
TAF
KIWD 172326Z 1800/1824 28010KT P6SM BKN045 FM180300 27008KT P6SM FEW150 FM180900 25004KT P6SM SCT090 FM181400 15006KT P6SM VCSH BKN060 FM181500 14008KT 3SM -SN OVC035 FM181700 15014G23KT 2SM -SN BLSN OVC030 FM182000 18013KT 2SM -SN OVC020 FM182100 19011KT 3SM -SN OVC010